createdAt,value
2019-04-14T00:00:29.298Z,34.38
2019-04-14T00:03:06.583Z,34.90
2019-04-14T00:05:40.823Z,34.75
2019-04-14T00:08:13.884Z,32.42
2019-04-14T00:10:46.445Z,34.40
2019-04-14T00:15:50.761Z,31.55
2019-04-14T00:18:23.050Z,32.28
2019-04-14T00:20:55.589Z,31.12
2019-04-14T00:23:28.269Z,32.60
2019-04-14T00:26:25.451Z,32.35
2019-04-14T00:28:57.965Z,34.55
2019-04-14T00:31:30.754Z,29.90
2019-04-14T00:34:05.412Z,30.08
2019-04-14T00:36:48.138Z,29.95
2019-04-14T00:39:22.662Z,30.62
2019-04-14T00:42:05.346Z,30.30
2019-04-14T00:44:39.513Z,29.92
2019-04-14T00:47:31.246Z,29.57
2019-04-14T00:50:04.715Z,29.32
2019-04-14T00:52:37.410Z,29.50
2019-04-14T00:55:10.190Z,29.63
2019-04-14T00:57:42.203Z,31.35
2019-04-14T01:00:17.287Z,30.95
2019-04-14T01:02:47.707Z,30.12
2019-04-14T01:05:19.667Z,29.35
2019-04-14T01:07:52.333Z,30.97
2019-04-14T01:10:24.217Z,30.48
2019-04-14T01:12:56.210Z,31.30
2019-04-14T01:15:29.032Z,29.90
2019-04-14T01:20:33.931Z,31.15
2019-04-14T01:23:06.353Z,31.05
2019-04-14T01:25:38.946Z,32.35
2019-04-14T01:30:43.631Z,31.37
2019-04-14T01:33:16.240Z,30.55
2019-04-14T01:35:48.916Z,29.90
2019-04-14T01:38:21.238Z,29.63
2019-04-14T01:40:53.590Z,31.27
2019-04-14T01:43:26.183Z,30.08
2019-04-14T01:46:07.868Z,30.57
2019-04-14T01:48:32.465Z,27.82
2019-04-14T01:51:22.190Z,29.35
2019-04-14T01:54:12.755Z,29.80
2019-04-14T01:56:55.913Z,30.80
2019-04-14T01:59:28.346Z,31.35
2019-04-14T02:04:32.061Z,31.67
2019-04-14T02:07:05.820Z,34.15
2019-04-14T02:09:37.958Z,32.20
2019-04-14T02:12:10.568Z,32.33
2019-04-14T02:14:43.027Z,30.70
2019-04-14T02:19:48.020Z,32.73
2019-04-14T02:22:20.270Z,30.17
2019-04-14T02:24:52.823Z,29.40
2019-04-14T02:29:58.105Z,30.87
2019-04-14T02:32:57.373Z,32.00
2019-04-14T02:35:47.344Z,34.13
2019-04-14T02:38:12.373Z,34.15
2019-04-14T02:43:12.839Z,33.10
2019-04-14T02:45:57.830Z,35.85
2019-04-14T02:50:47.731Z,36.93
2019-04-14T02:53:25.813Z,39.53
2019-04-14T02:56:07.690Z,37.17
2019-04-14T02:58:36.191Z,35.52
2019-04-14T03:01:07.156Z,38.28
2019-04-14T03:03:41.011Z,33.42
2019-04-14T03:08:51.212Z,35.88
2019-04-14T03:11:17.455Z,36.85
2019-04-14T03:13:52.131Z,35.03
2019-04-14T03:16:33.084Z,33.67
2019-04-14T03:19:09.542Z,35.05
2019-04-14T03:24:29.137Z,35.68
2019-04-14T03:27:06.178Z,31.80
2019-04-14T03:30:17.483Z,34.23
2019-04-14T03:32:53.185Z,32.78
2019-04-14T03:35:30.229Z,35.23
2019-04-14T03:37:45.274Z,35.28
2019-04-14T03:40:08.813Z,32.33
2019-04-14T03:42:45.949Z,29.95
2019-04-14T03:45:30.057Z,34.03
2019-04-14T03:48:02.041Z,32.90
2019-04-14T03:50:23.129Z,33.95
2019-04-14T03:52:55.754Z,33.05
2019-04-14T03:55:16.291Z,34.88
2019-04-14T03:57:37.381Z,34.50
2019-04-14T04:00:09.884Z,32.85
2019-04-14T04:02:42.314Z,33.25
2019-04-14T04:05:15.145Z,31.70
2019-04-14T04:07:47.461Z,34.15
2019-04-14T04:10:21.156Z,34.27
2019-04-14T04:12:53.812Z,33.88
2019-04-14T04:15:25.692Z,32.10
2019-04-14T04:18:00.212Z,33.38
2019-04-14T04:20:37.102Z,32.08
2019-04-14T04:23:27.162Z,31.85
2019-04-14T04:26:06.823Z,29.75
2019-04-14T04:28:53.944Z,31.48
2019-04-14T04:31:44.304Z,33.00
2019-04-14T04:34:33.909Z,31.73
2019-04-14T04:37:08.377Z,31.37
2019-04-14T04:39:45.355Z,32.70
2019-04-14T04:42:17.690Z,31.85
2019-04-14T04:44:50.931Z,32.70
2019-04-14T04:47:23.122Z,32.58
2019-04-14T04:49:55.433Z,33.38
2019-04-14T04:52:28.051Z,34.00
2019-04-14T04:55:00.238Z,32.98
2019-04-14T04:57:32.804Z,31.55
2019-04-14T05:00:07.088Z,32.80
2019-04-14T05:02:39.568Z,34.67
2019-04-14T05:05:40.549Z,34.43
2019-04-14T05:08:13.096Z,32.93
2019-04-14T05:10:46.524Z,35.73
2019-04-14T05:13:19.025Z,35.33
2019-04-14T05:15:53.218Z,32.20
2019-04-14T05:18:26.670Z,34.90
2019-04-14T05:20:59.628Z,37.42
2019-04-14T05:23:32.111Z,34.50
2019-04-14T05:26:04.877Z,34.53
2019-04-14T05:28:37.430Z,31.48
2019-04-14T05:31:09.816Z,32.28
2019-04-14T05:33:42.575Z,33.33
2019-04-14T05:36:15.483Z,28.70
2019-04-14T05:38:47.732Z,29.87
2019-04-14T05:41:20.124Z,30.15
2019-04-14T05:46:25.243Z,27.73
2019-04-14T05:48:57.864Z,25.55
2019-04-14T05:51:30.533Z,26.90
2019-04-14T05:54:03.319Z,26.97
2019-04-14T05:56:37.515Z,26.07
2019-04-14T05:59:08.900Z,23.98
2019-04-14T06:01:42.052Z,25.75
2019-04-14T06:04:15.654Z,26.37
2019-04-14T06:06:47.665Z,27.25
2019-04-14T06:09:19.372Z,27.90
2019-04-14T06:11:51.505Z,25.77
2019-04-14T06:14:23.141Z,25.30
2019-04-14T06:16:56.641Z,28.00
2019-04-14T06:19:37.074Z,25.77
2019-04-14T06:22:02.353Z,26.48
2019-04-14T06:24:33.853Z,26.93
2019-04-14T06:27:06.443Z,26.77
2019-04-14T06:29:39.161Z,26.02
2019-04-14T06:32:15.338Z,25.95
2019-04-14T06:34:49.002Z,25.52
2019-04-14T06:37:22.605Z,26.82
2019-04-14T06:39:55.830Z,25.35
2019-04-14T06:42:27.843Z,24.43
2019-04-14T06:44:59.641Z,24.20
2019-04-14T06:47:33.348Z,24.23
2019-04-14T06:50:07.188Z,23.12
2019-04-14T06:52:39.090Z,23.12
2019-04-14T06:55:11.332Z,22.42
2019-04-14T06:57:43.282Z,21.90
2019-04-14T07:00:15.635Z,22.35
2019-04-14T07:05:19.868Z,23.98
2019-04-14T07:07:57.054Z,26.15
2019-04-14T07:10:25.246Z,23.30
2019-04-14T07:12:57.232Z,22.42
2019-04-14T07:15:29.471Z,20.20
2019-04-14T07:18:01.107Z,21.85
2019-04-14T07:20:33.401Z,21.70
2019-04-14T07:23:05.066Z,21.95
2019-04-14T07:25:36.913Z,25.40
2019-04-14T07:28:08.571Z,26.00
2019-04-14T07:30:51.057Z,24.37
2019-04-14T07:36:29.582Z,23.40
2019-04-14T07:39:06.077Z,23.80
2019-04-14T07:41:54.344Z,24.70
2019-04-14T07:44:27.701Z,22.60
2019-04-14T07:47:07.251Z,23.55
2019-04-14T07:49:56.690Z,44.10
2019-04-14T07:52:46.385Z,21.93
2019-04-14T07:55:28.514Z,20.85
2019-04-14T07:58:18.249Z,21.27
2019-04-14T08:00:52.121Z,21.00
2019-04-14T08:03:44.512Z,21.15
2019-04-14T08:06:16.434Z,19.80
2019-04-14T08:08:48.844Z,20.90
2019-04-14T08:11:21.729Z,19.35
2019-04-14T08:13:53.591Z,19.13
2019-04-14T08:16:25.450Z,16.95
2019-04-14T08:18:57.161Z,17.50
2019-04-14T08:21:28.974Z,15.63
2019-04-14T08:24:01.131Z,17.57
2019-04-14T08:26:33.622Z,16.80
2019-04-14T08:29:05.452Z,17.57
2019-04-14T08:31:37.130Z,16.27
2019-04-14T08:34:09.501Z,16.50
2019-04-14T08:36:40.990Z,16.82
2019-04-14T08:39:13.112Z,16.40
2019-04-14T08:41:55.236Z,17.82
2019-04-14T08:44:31.373Z,17.45
2019-04-14T08:47:16.239Z,16.73
2019-04-14T08:49:49.887Z,17.90
2019-04-14T08:52:38.608Z,16.82
2019-04-14T08:55:15.003Z,18.00
2019-04-14T08:57:54.163Z,17.42
2019-04-14T09:00:30.411Z,17.05
2019-04-14T09:03:19.734Z,15.80
2019-04-14T09:05:53.299Z,16.15
2019-04-14T09:08:26.637Z,15.70
2019-04-14T09:11:03.205Z,17.23
2019-04-14T09:13:35.893Z,16.67
2019-04-14T09:16:08.044Z,16.23
2019-04-14T09:18:40.985Z,16.65
2019-04-14T09:21:12.944Z,17.40
2019-04-14T09:23:44.850Z,15.43
2019-04-14T09:26:16.920Z,15.43
2019-04-14T09:28:48.727Z,16.52
2019-04-14T09:31:20.844Z,16.87
2019-04-14T09:33:52.500Z,16.73
2019-04-14T09:36:24.266Z,17.67
2019-04-14T09:38:56.115Z,16.25
2019-04-14T09:41:28.895Z,17.40
2019-04-14T09:44:00.649Z,16.35
2019-04-14T09:46:32.456Z,17.02
2019-04-14T09:49:04.171Z,17.85
2019-04-14T09:51:36.040Z,16.95
2019-04-14T09:54:07.815Z,18.52
2019-04-14T09:56:39.747Z,16.40
2019-04-14T09:59:11.397Z,16.70
2019-04-14T10:01:44.582Z,17.82
2019-04-14T10:04:16.456Z,16.12
2019-04-14T10:06:48.246Z,16.43
2019-04-14T10:09:21.104Z,17.52
2019-04-14T10:11:56.263Z,16.93
2019-04-14T10:14:26.486Z,16.60
2019-04-14T10:17:01.197Z,16.27
2019-04-14T10:19:31.990Z,17.02
2019-04-14T10:22:04.934Z,15.18
2019-04-14T10:24:36.959Z,15.93
2019-04-14T10:27:09.882Z,16.20
2019-04-14T10:29:41.509Z,15.98
2019-04-14T10:32:13.891Z,15.43
2019-04-14T10:34:45.979Z,14.53
2019-04-14T10:37:17.937Z,14.45
2019-04-14T10:39:49.658Z,14.87
2019-04-14T10:42:21.797Z,15.60
2019-04-14T10:44:54.193Z,15.35
2019-04-14T10:47:26.263Z,16.97
2019-04-14T10:49:57.874Z,16.02
2019-04-14T10:52:29.906Z,17.07
2019-04-14T10:55:01.643Z,16.35
2019-04-14T10:57:34.564Z,16.45
2019-04-14T11:00:09.886Z,17.65
2019-04-14T11:02:41.705Z,15.65
2019-04-14T11:05:13.819Z,15.50
2019-04-14T11:07:45.392Z,17.17
2019-04-14T11:10:17.412Z,16.17
2019-04-14T11:12:49.382Z,16.00
2019-04-14T11:15:21.735Z,14.65
2019-04-14T11:17:53.394Z,15.65
2019-04-14T11:20:27.101Z,16.00
2019-04-14T11:23:03.414Z,16.80
2019-04-14T11:25:33.034Z,16.93
2019-04-14T11:28:04.745Z,16.93
2019-04-14T11:30:36.792Z,14.90
2019-04-14T11:33:10.159Z,15.95
2019-04-14T11:35:49.706Z,16.30
2019-04-14T11:38:26.056Z,16.32
2019-04-14T11:40:59.276Z,15.48
2019-04-14T11:43:31.424Z,16.30
2019-04-14T11:46:04.232Z,15.60
2019-04-14T11:48:36.497Z,14.65
2019-04-14T11:51:08.362Z,15.48
2019-04-14T11:53:40.577Z,15.23
2019-04-14T11:56:12.323Z,15.38
2019-04-14T11:58:44.059Z,13.68
2019-04-14T12:01:34.043Z,15.60
2019-04-14T12:04:10.498Z,15.18
2019-04-14T12:07:02.093Z,14.75
2019-04-14T12:09:44.385Z,15.18
2019-04-14T12:12:15.988Z,14.85
2019-04-14T12:14:48.099Z,15.93
2019-04-14T12:17:19.814Z,13.80
2019-04-14T12:19:53.063Z,15.13
2019-04-14T12:22:25.507Z,15.53
2019-04-14T12:24:57.385Z,15.00
2019-04-14T12:27:29.360Z,16.27
2019-04-14T12:30:01.367Z,15.88
2019-04-14T12:32:33.605Z,16.40
2019-04-14T12:35:06.193Z,17.27
2019-04-14T12:37:37.895Z,17.20
2019-04-14T12:40:10.612Z,15.95
2019-04-14T12:42:47.095Z,18.87
2019-04-14T12:45:29.317Z,17.27
2019-04-14T12:48:12.092Z,16.87
2019-04-14T12:53:16.091Z,17.60
2019-04-14T12:55:47.911Z,19.20
2019-04-14T12:58:21.429Z,18.07
2019-04-14T13:00:54.714Z,19.40
2019-04-14T13:03:26.874Z,19.67
2019-04-14T13:05:58.737Z,18.45
2019-04-14T13:08:30.634Z,18.07
2019-04-14T13:11:02.464Z,18.87
2019-04-14T13:13:36.155Z,19.77
2019-04-14T13:16:08.243Z,18.95
2019-04-14T13:18:40.087Z,17.40
2019-04-14T13:21:12.198Z,18.70
2019-04-14T13:23:43.969Z,19.65
2019-04-14T13:26:16.091Z,17.77
2019-04-14T13:28:47.816Z,19.80
2019-04-14T13:31:19.998Z,19.47
2019-04-14T13:33:54.702Z,20.48
2019-04-14T13:36:25.769Z,19.15
2019-04-14T13:38:57.536Z,19.85
2019-04-14T13:41:29.391Z,19.87
2019-04-14T13:44:01.253Z,19.77
2019-04-14T13:46:33.171Z,20.23
2019-04-14T13:49:04.929Z,19.92
2019-04-14T13:51:36.948Z,20.95
2019-04-14T13:54:08.792Z,20.50
2019-04-14T13:56:40.709Z,21.42
2019-04-14T13:59:12.750Z,20.65
2019-04-14T14:01:45.002Z,19.70
2019-04-14T14:04:16.671Z,20.23
2019-04-14T14:06:48.872Z,20.25
2019-04-14T14:09:20.846Z,22.02
2019-04-14T14:12:03.746Z,21.07
2019-04-14T14:14:54.723Z,19.95
2019-04-14T14:17:39.900Z,20.97
2019-04-14T14:20:30.306Z,20.43
2019-04-14T14:23:06.670Z,19.70
2019-04-14T14:25:48.588Z,20.00
2019-04-14T14:28:20.297Z,19.42
2019-04-14T14:30:52.342Z,18.82
2019-04-14T14:33:24.180Z,20.02
2019-04-14T14:35:56.272Z,20.70
2019-04-14T14:38:28.034Z,20.32
2019-04-14T14:41:01.755Z,21.68
2019-04-14T14:43:33.709Z,21.42
2019-04-14T14:46:07.387Z,20.37
2019-04-14T14:48:40.473Z,20.90
2019-04-14T14:51:30.380Z,23.10
2019-04-14T14:54:02.134Z,20.02
2019-04-14T14:56:34.887Z,21.87
2019-04-14T14:59:06.803Z,21.93
2019-04-14T15:01:38.942Z,21.17
2019-04-14T15:04:10.901Z,21.35
2019-04-14T15:06:43.072Z,21.45
2019-04-14T15:09:14.825Z,21.97
2019-04-14T15:11:46.893Z,18.60
2019-04-14T15:14:18.581Z,20.25
2019-04-14T15:16:50.922Z,19.80
2019-04-14T15:19:22.473Z,20.17
2019-04-14T15:21:54.455Z,19.52
2019-04-14T15:24:26.105Z,19.87
2019-04-14T15:26:58.252Z,20.12
2019-04-14T15:29:29.908Z,19.95
2019-04-14T15:32:01.903Z,20.12
2019-04-14T15:34:33.540Z,19.62
2019-04-14T15:37:05.759Z,18.40
2019-04-14T15:39:37.865Z,18.55
2019-04-14T15:42:09.731Z,19.55
2019-04-14T15:44:41.416Z,15.20
2019-04-14T15:47:13.155Z,17.73
2019-04-14T15:49:44.993Z,19.45
2019-04-14T15:52:16.744Z,19.12
2019-04-14T15:54:48.719Z,20.00
2019-04-14T15:57:37.205Z,17.12
2019-04-14T16:00:23.291Z,19.25
2019-04-14T16:03:13.864Z,17.30
2019-04-14T16:05:47.263Z,15.50
2019-04-14T16:08:23.681Z,16.05
2019-04-14T16:10:59.859Z,16.37
2019-04-14T16:13:33.179Z,15.95
2019-04-14T16:16:24.509Z,15.40
2019-04-14T16:18:59.172Z,16.85
2019-04-14T16:21:31.182Z,16.67
2019-04-14T16:24:02.876Z,15.60
2019-04-14T16:26:51.724Z,15.70
2019-04-14T16:29:27.980Z,15.40
2019-04-14T16:32:17.034Z,14.00
2019-04-14T16:34:56.137Z,15.70
2019-04-14T16:37:28.024Z,14.53
2019-04-14T16:40:00.232Z,15.43
2019-04-14T16:42:32.302Z,16.48
2019-04-14T16:45:06.435Z,16.02
2019-04-14T16:47:40.090Z,15.95
2019-04-14T16:50:12.035Z,16.25
2019-04-14T16:52:51.584Z,15.08
2019-04-14T16:55:33.976Z,15.10
2019-04-14T16:58:19.949Z,15.72
2019-04-14T17:01:09.824Z,17.05
2019-04-14T17:03:42.055Z,14.28
2019-04-14T17:06:13.991Z,16.48
2019-04-14T17:08:45.589Z,16.55
2019-04-14T17:11:17.755Z,15.53
2019-04-14T17:13:51.126Z,16.70
2019-04-14T17:16:27.295Z,15.60
2019-04-14T17:19:03.329Z,15.35
2019-04-14T17:21:41.129Z,14.55
2019-04-14T17:24:29.805Z,14.75
2019-04-14T17:27:21.611Z,13.95
2019-04-14T17:30:10.024Z,14.10
2019-04-14T17:32:53.113Z,14.00
2019-04-14T17:35:38.545Z,13.15
2019-04-14T17:38:28.453Z,14.15
2019-04-14T17:41:08.158Z,14.60
2019-04-14T17:43:41.869Z,13.08
2019-04-14T17:46:17.932Z,13.20
2019-04-14T17:48:54.835Z,14.35
2019-04-14T17:51:28.524Z,14.38
2019-04-14T17:54:28.628Z,15.20
2019-04-14T17:56:55.647Z,14.35
2019-04-14T17:59:30.734Z,14.80
2019-04-14T18:02:04.228Z,15.85
2019-04-14T18:04:52.663Z,15.55
2019-04-14T18:07:26.365Z,14.83
2019-04-14T18:10:05.652Z,15.38
2019-04-14T18:12:38.953Z,15.30
2019-04-14T18:15:15.419Z,15.53
2019-04-14T18:17:54.732Z,15.60
2019-04-14T18:20:29.393Z,17.07
2019-04-14T18:23:01.218Z,15.68
2019-04-14T18:25:33.109Z,16.73
2019-04-14T18:28:09.119Z,15.35
2019-04-14T18:30:48.185Z,17.87
2019-04-14T18:33:31.073Z,15.15
2019-04-14T18:38:36.796Z,16.45
2019-04-14T18:41:28.161Z,17.92
2019-04-14T18:44:16.587Z,14.28
2019-04-14T18:47:04.720Z,15.23
2019-04-14T18:49:54.636Z,16.23
2019-04-14T18:52:42.404Z,16.50
2019-04-14T18:55:21.820Z,16.00
2019-04-14T18:58:11.307Z,15.45
2019-04-14T19:00:47.852Z,15.10
2019-04-14T19:03:19.577Z,14.55
2019-04-14T19:05:51.646Z,15.03
2019-04-14T19:08:23.239Z,14.58
2019-04-14T19:14:00.424Z,14.70
2019-04-14T19:16:39.912Z,14.95
2019-04-14T19:19:08.780Z,14.05
2019-04-14T19:21:40.250Z,14.13
2019-04-14T19:24:12.263Z,14.65
2019-04-14T19:26:44.002Z,13.32
2019-04-14T19:29:16.032Z,13.45
2019-04-14T19:31:47.844Z,12.13
2019-04-14T19:34:19.668Z,12.85
2019-04-14T19:36:51.480Z,13.08
2019-04-14T19:39:24.147Z,13.90
2019-04-14T19:41:56.144Z,12.53
2019-04-14T19:44:28.101Z,12.10
2019-04-14T19:46:59.809Z,11.08
2019-04-14T19:49:31.907Z,11.48
2019-04-14T19:52:03.680Z,10.68
2019-04-14T19:54:35.458Z,10.30
2019-04-14T19:57:07.554Z,10.93
2019-04-14T19:59:39.515Z,9.75
2019-04-14T20:02:11.091Z,8.43
2019-04-14T20:04:43.050Z,9.13
2019-04-14T20:07:14.516Z,8.40
2019-04-14T20:09:46.256Z,8.83
2019-04-14T20:12:17.998Z,8.70
2019-04-14T20:14:49.886Z,9.35
2019-04-14T20:17:38.199Z,7.72
2019-04-14T20:20:12.339Z,9.75
2019-04-14T20:22:58.467Z,9.60
2019-04-14T20:25:48.349Z,9.65
2019-04-14T20:28:25.996Z,9.95
2019-04-14T20:30:58.996Z,8.35
2019-04-14T20:33:30.672Z,10.00
2019-04-14T20:36:05.225Z,9.28
2019-04-14T20:38:35.732Z,9.20
2019-04-14T20:41:07.515Z,8.60
2019-04-14T20:43:39.275Z,8.95
2019-04-14T20:46:11.166Z,8.05
2019-04-14T20:48:42.932Z,8.47
2019-04-14T20:51:14.681Z,8.28
2019-04-14T20:53:46.387Z,8.07
2019-04-14T20:56:18.192Z,7.55
2019-04-14T20:58:50.156Z,8.13
2019-04-14T21:01:21.989Z,8.35
2019-04-14T21:04:04.526Z,8.50
2019-04-14T21:06:40.489Z,8.90
2019-04-14T21:09:19.778Z,9.45
2019-04-14T21:11:52.885Z,10.03
2019-04-14T21:14:31.084Z,10.43
2019-04-14T21:17:07.787Z,10.63
2019-04-14T21:19:41.590Z,10.20
2019-04-14T21:22:15.058Z,10.65
2019-04-14T21:25:00.571Z,11.50
2019-04-14T21:27:52.470Z,10.63
2019-04-14T21:30:26.055Z,10.82
2019-04-14T21:33:08.334Z,11.50
2019-04-14T21:35:56.651Z,8.85
2019-04-14T21:38:45.203Z,12.58
2019-04-14T21:41:21.568Z,12.33
2019-04-14T21:43:53.480Z,12.73
2019-04-14T21:46:25.021Z,11.68
2019-04-14T21:48:57.195Z,14.15
2019-04-14T21:51:46.641Z,10.90
2019-04-14T21:54:19.663Z,15.55
2019-04-14T21:57:08.940Z,15.35
2019-04-14T21:59:48.541Z,17.73
2019-04-14T22:02:38.375Z,17.23
2019-04-14T22:05:12.554Z,16.60
2019-04-14T22:07:45.710Z,17.35
2019-04-14T22:10:19.420Z,18.27
2019-04-14T22:12:51.357Z,19.37
2019-04-14T22:15:23.541Z,17.92
2019-04-14T22:17:55.425Z,18.00
2019-04-14T22:20:28.078Z,18.42
2019-04-14T22:23:01.544Z,19.70
2019-04-14T22:25:33.155Z,20.77
2019-04-14T22:28:04.902Z,20.30
2019-04-14T22:30:36.709Z,20.92
2019-04-14T22:33:08.936Z,20.32
2019-04-14T22:35:40.510Z,19.75
2019-04-14T22:38:12.320Z,21.10
2019-04-14T22:40:44.166Z,19.45
2019-04-14T22:43:16.597Z,22.32
2019-04-14T22:45:48.393Z,21.97
2019-04-14T22:48:20.291Z,20.48
2019-04-14T22:50:51.831Z,19.70
2019-04-14T22:53:23.608Z,21.37
2019-04-14T22:55:55.548Z,20.50
2019-04-14T22:58:27.326Z,21.52
2019-04-14T23:01:10.024Z,20.37
2019-04-14T23:06:27.175Z,21.65
2019-04-14T23:09:16.647Z,18.35
2019-04-14T23:11:50.246Z,20.92
2019-04-14T23:14:23.618Z,21.45
2019-04-14T23:17:08.747Z,22.00
2019-04-14T23:19:48.085Z,21.52
2019-04-14T23:22:28.599Z,20.82
2019-04-14T23:25:00.285Z,19.90
2019-04-14T23:27:32.045Z,20.55
2019-04-14T23:30:04.820Z,19.00
2019-04-14T23:32:36.554Z,21.95
2019-04-14T23:35:08.504Z,19.32
2019-04-14T23:37:40.166Z,19.20
2019-04-14T23:40:12.291Z,20.77
2019-04-14T23:42:44.645Z,18.37
2019-04-14T23:45:16.782Z,17.90
2019-04-14T23:47:48.386Z,17.52
2019-04-14T23:50:20.301Z,17.27
2019-04-14T23:52:51.855Z,16.35
2019-04-14T23:55:24.025Z,17.57
2019-04-14T23:57:58.942Z,18.95
